Terminal Aerodrome Forecast
Issued by NWS

Home | Current Version | Previous Version | Text Only | Print | Product List | Glossary Off
Versions: 1 2 3 4 5 6 7 8 9 10 11 12 13 14

914
FTUS43 KOAX 222320
TAFCDR
TAF
KCDR 222320Z 2300/2324 21016G30KT P6SM BKN120
     FM230300 20012KT P6SM SCT120
     FM231500 33014KT P6SM SCT120
     FM231900 35013G24KT P6SM SCT120=

USA.gov is the U.S. government's official web portal to all federal, state and local government web resources and services.